Arctic Viking — OW2399 — position and weather

sailwx.info

Track history (hours):
 
Tides and Currents Weather Stations Pressure Air Temp Water Temp Dewpoint Dewpoint Depression Visibility Wind Speed Wind Dir Waves Ship Positions

Arctic Viking

Last reported at 2017-Dec-30 07:59 UTC. Time now 2018-Jan-22 16:30 UTC.
Position N 70°41' E 020°49'.
Warning: this ship's position is 23 days out of date.

Length 58 m; draft 7.2 m.

Type: Fishing. MMSI: 231053000.

Date/timePositionNaut miles runAvg speedWind from/ knotsBaromVisibWave heightAir tempDewpointWater temp
2017-Dec-30 07:59N 70°41' E 020°49'5 9.4
2017-Dec-30 07:30N 70°36' E 020°49'5 9.5
2017-Dec-30 06:59N 70°32' E 020°43'510.2
2017-Dec-30 06:29N 70°27' E 020°37'510.4
2017-Dec-30 06:00N 70°23' E 020°32'510.4
2017-Dec-30 05:30N 70°18' E 020°26'510.5
2017-Dec-30 05:00N 70°13' E 020°21'510.9
2017-Dec-30 04:30N 70°08' E 020°13'610.7
2017-Dec-30 03:59N 70°03' E 020°06'510.7
2017-Dec-30 03:30N 69°58' E 019°59'611.2
2017-Dec-30 03:00N 69°53' E 019°51'510.5
2017-Dec-30 02:30N 69°50' E 019°39'511.1
2017-Dec-30 02:00N 69°48' E 019°24'5 9.8
2017-Dec-30 01:30N 69°47' E 019°10'4 8.5
2017-Dec-30 01:00N 69°43' E 019°03'3 5.9
2017-Dec-30 00:30N 69°41' E 018°60'0 0.1
2017-Dec-30 00:00N 69°41' E 018°59'0 0.0
2017-Dec-29 23:30N 69°41' E 018°59'0 0.0
2017-Dec-29 23:00N 69°41' E 018°59'0 0.0
2017-Dec-29 22:30N 69°41' E 018°59'0 0.0
2017-Dec-29 22:00N 69°41' E 018°59'0 0.0
2017-Dec-29 21:30N 69°41' E 018°59'0 0.0
2017-Dec-29 21:00N 69°41' E 018°59'0 0.0
2017-Dec-29 20:30N 69°41' E 018°59'0 0.0
2017-Dec-29 20:00N 69°41' E 018°59'0 0.0
2017-Dec-29 19:30N 69°41' E 018°59'0 0.0
2017-Dec-29 19:00N 69°41' E 018°59'0 0.0
2017-Dec-29 18:30N 69°41' E 018°59'0 0.0
2017-Dec-29 18:00N 69°41' E 018°59'0 0.0
2017-Dec-29 17:30N 69°41' E 018°59'0 0.0
2017-Dec-29 17:00N 69°41' E 018°59'0 0.0
2017-Dec-29 16:30N 69°41' E 018°59'0 0.0
2017-Dec-29 16:00N 69°41' E 018°60'1 2.5
2017-Dec-29 15:30N 69°39' E 018°59'0 0.4
2017-Dec-29 15:00N 69°40' E 018°58'0 0.0
2017-Dec-29 14:30N 69°40' E 018°58'0 0.0
2017-Dec-29 14:00N 69°40' E 018°58'0 0.0
2017-Dec-29 13:30N 69°40' E 018°58'0 0.0
2017-Dec-29 13:00N 69°40' E 018°58'0 0.0
2017-Dec-29 12:30N 69°40' E 018°58'0 0.0
2017-Dec-29 12:00N 69°40' E 018°58'0 0.8
2017-Dec-29 11:30N 69°40' E 018°59'3 5.6
2017-Dec-29 11:00N 69°37' E 018°55'510.1
2017-Dec-29 10:30N 69°34' E 018°46'5 9.3
2017-Dec-29 10:00N 69°32' E 018°33'510.3
2017-Dec-29 09:30N 69°30' E 018°19'5 9.0
2017-Dec-29 09:00N 69°28' E 018°08'4 7.9
2017-Dec-29 08:30N 69°24' E 018°08'1 1.2
2017-Dec-29 08:00N 69°24' E 018°09'  
Track history (hours):
 
Tides and Currents Weather Stations Pressure Air Temp Water Temp Dewpoint Dewpoint Depression Visibility Wind Speed Wind Dir Waves Ship Positions

Arctic Viking

Last reported at 2017-Dec-30 07:59 UTC. Time now 2018-Jan-22 16:30 UTC.
Position N 70°41' E 020°49'.
Warning: this ship's position is 23 days out of date.

Length 58 m; draft 7.2 m.

Type: Fishing. MMSI: 231053000.

Date/timePositionNaut miles runAvg speedWind from/ knotsBaromVisibWave heightAir tempDewpointWater temp
2017-Dec-30 07:59N 70°41' E 020°49'5 9.4
2017-Dec-30 07:30N 70°36' E 020°49'5 9.5
2017-Dec-30 06:59N 70°32' E 020°43'510.2
2017-Dec-30 06:29N 70°27' E 020°37'510.4
2017-Dec-30 06:00N 70°23' E 020°32'510.4
2017-Dec-30 05:30N 70°18' E 020°26'510.5
2017-Dec-30 05:00N 70°13' E 020°21'510.9
2017-Dec-30 04:30N 70°08' E 020°13'610.7
2017-Dec-30 03:59N 70°03' E 020°06'510.7
2017-Dec-30 03:30N 69°58' E 019°59'611.2
2017-Dec-30 03:00N 69°53' E 019°51'510.5
2017-Dec-30 02:30N 69°50' E 019°39'511.1
2017-Dec-30 02:00N 69°48' E 019°24'5 9.8
2017-Dec-30 01:30N 69°47' E 019°10'4 8.5
2017-Dec-30 01:00N 69°43' E 019°03'3 5.9
2017-Dec-30 00:30N 69°41' E 018°60'0 0.1
2017-Dec-30 00:00N 69°41' E 018°59'0 0.0
2017-Dec-29 23:30N 69°41' E 018°59'0 0.0
2017-Dec-29 23:00N 69°41' E 018°59'0 0.0
2017-Dec-29 22:30N 69°41' E 018°59'0 0.0
2017-Dec-29 22:00N 69°41' E 018°59'0 0.0
2017-Dec-29 21:30N 69°41' E 018°59'0 0.0
2017-Dec-29 21:00N 69°41' E 018°59'0 0.0
2017-Dec-29 20:30N 69°41' E 018°59'0 0.0
2017-Dec-29 20:00N 69°41' E 018°59'0 0.0
2017-Dec-29 19:30N 69°41' E 018°59'0 0.0
2017-Dec-29 19:00N 69°41' E 018°59'0 0.0
2017-Dec-29 18:30N 69°41' E 018°59'0 0.0
2017-Dec-29 18:00N 69°41' E 018°59'0 0.0
2017-Dec-29 17:30N 69°41' E 018°59'0 0.0
2017-Dec-29 17:00N 69°41' E 018°59'0 0.0
2017-Dec-29 16:30N 69°41' E 018°59'0 0.0
2017-Dec-29 16:00N 69°41' E 018°60'1 2.5
2017-Dec-29 15:30N 69°39' E 018°59'0 0.4
2017-Dec-29 15:00N 69°40' E 018°58'0 0.0
2017-Dec-29 14:30N 69°40' E 018°58'0 0.0
2017-Dec-29 14:00N 69°40' E 018°58'0 0.0
2017-Dec-29 13:30N 69°40' E 018°58'0 0.0
2017-Dec-29 13:00N 69°40' E 018°58'0 0.0
2017-Dec-29 12:30N 69°40' E 018°58'0 0.0
2017-Dec-29 12:00N 69°40' E 018°58'0 0.8
2017-Dec-29 11:30N 69°40' E 018°59'3 5.6
2017-Dec-29 11:00N 69°37' E 018°55'510.1
2017-Dec-29 10:30N 69°34' E 018°46'5 9.3
2017-Dec-29 10:00N 69°32' E 018°33'510.3
2017-Dec-29 09:30N 69°30' E 018°19'5 9.0
2017-Dec-29 09:00N 69°28' E 018°08'4 7.9
2017-Dec-29 08:30N 69°24' E 018°08'1 1.2
2017-Dec-29 08:00N 69°24' E 018°09'  

Dump ship's entire track history